createdAt,value
2022-10-31T00:01:48.081Z,12.03
2022-10-31T00:04:14.890Z,12.30
2022-10-31T00:06:41.618Z,10.97
2022-10-31T00:09:10.518Z,11.20
2022-10-31T00:11:37.287Z,10.83
2022-10-31T00:14:04.637Z,11.23
2022-10-31T00:16:31.700Z,10.83
2022-10-31T00:19:00.885Z,9.67
2022-10-31T00:21:28.514Z,10.20
2022-10-31T00:23:55.309Z,10.57
2022-10-31T00:26:22.360Z,11.80
2022-10-31T00:28:49.513Z,10.47
2022-10-31T00:31:16.430Z,10.40
2022-10-31T00:33:43.499Z,10.10
2022-10-31T00:36:14.316Z,10.33
2022-10-31T00:38:41.801Z,10.50
2022-10-31T00:41:08.847Z,10.27
2022-10-31T00:43:35.711Z,10.57
2022-10-31T00:46:02.577Z,10.47
2022-10-31T00:48:30.260Z,11.00
2022-10-31T00:50:57.249Z,9.00
2022-10-31T00:53:24.026Z,9.93
2022-10-31T00:55:51.063Z,10.40
2022-10-31T00:58:17.767Z,9.87
2022-10-31T01:00:46.790Z,10.20
2022-10-31T01:03:16.293Z,8.77
2022-10-31T01:05:43.028Z,10.50
2022-10-31T01:08:09.709Z,10.07
2022-10-31T01:10:36.405Z,9.00
2022-10-31T01:13:03.107Z,9.90
2022-10-31T01:15:30.018Z,10.73
2022-10-31T01:17:56.781Z,9.40
2022-10-31T01:20:23.636Z,10.27
2022-10-31T01:22:50.336Z,10.40
2022-10-31T01:25:17.089Z,10.33
2022-10-31T01:27:43.822Z,10.03
2022-10-31T01:30:11.109Z,10.80
2022-10-31T01:32:37.824Z,9.23
2022-10-31T01:35:04.820Z,9.60
2022-10-31T01:37:31.880Z,9.97
2022-10-31T01:39:58.547Z,9.23
2022-10-31T01:42:25.262Z,9.10
2022-10-31T01:44:56.344Z,10.10
2022-10-31T01:47:38.283Z,8.73
2022-10-31T01:50:12.268Z,8.83
2022-10-31T01:52:43.816Z,9.70
2022-10-31T01:55:19.411Z,9.93
2022-10-31T01:57:49.378Z,9.57
2022-10-31T02:00:16.683Z,10.20
2022-10-31T02:02:45.637Z,9.70
2022-10-31T02:05:18.287Z,9.43
2022-10-31T02:07:55.242Z,9.47
2022-10-31T02:10:24.000Z,9.43
2022-10-31T02:12:58.170Z,9.20
2022-10-31T02:15:25.315Z,8.40
2022-10-31T02:17:52.639Z,8.10
2022-10-31T02:20:22.633Z,9.30
2022-10-31T02:23:22.569Z,7.50
2022-10-31T02:26:27.076Z,8.60
2022-10-31T02:29:24.719Z,9.23
2022-10-31T02:32:04.972Z,9.33
2022-10-31T02:34:49.550Z,8.60
2022-10-31T02:37:47.600Z,8.17
2022-10-31T02:40:17.041Z,9.43
2022-10-31T02:42:56.657Z,9.63
2022-10-31T02:45:36.638Z,8.97
2022-10-31T02:48:13.463Z,9.70
2022-10-31T02:50:44.272Z,9.63
2022-10-31T02:53:14.654Z,9.40
2022-10-31T02:55:48.320Z,9.97
2022-10-31T03:00:52.319Z,10.00
2022-10-31T03:03:31.253Z,9.93
2022-10-31T03:06:14.815Z,9.63
2022-10-31T03:08:49.478Z,10.03
2022-10-31T03:11:19.529Z,10.80
2022-10-31T03:13:57.692Z,9.20
2022-10-31T03:16:31.815Z,9.53
2022-10-31T03:19:13.399Z,9.83
2022-10-31T03:21:52.436Z,11.23
2022-10-31T03:24:22.386Z,10.60
2022-10-31T03:26:54.124Z,9.87
2022-10-31T03:29:23.984Z,9.80
2022-10-31T03:31:56.729Z,9.60
2022-10-31T03:34:23.410Z,10.30
2022-10-31T03:36:53.249Z,9.37
2022-10-31T03:39:22.443Z,9.43
2022-10-31T03:42:19.784Z,9.30
2022-10-31T03:44:58.850Z,9.97
2022-10-31T03:47:25.998Z,9.60
2022-10-31T03:49:52.967Z,8.73
2022-10-31T03:52:23.942Z,10.50
2022-10-31T03:55:08.494Z,10.23
2022-10-31T03:58:15.612Z,9.20
2022-10-31T04:00:45.387Z,9.70
2022-10-31T04:03:16.790Z,9.30
2022-10-31T04:05:46.892Z,9.40
2022-10-31T04:08:18.350Z,8.43
2022-10-31T04:10:48.427Z,10.13
2022-10-31T04:15:54.877Z,9.20
2022-10-31T04:18:23.091Z,9.37
2022-10-31T04:20:50.978Z,9.00
2022-10-31T04:23:23.933Z,9.20
2022-10-31T04:25:50.808Z,10.60
2022-10-31T04:28:20.519Z,9.40
2022-10-31T04:30:47.230Z,9.07
2022-10-31T04:33:13.884Z,10.30
2022-10-31T04:35:41.083Z,9.63
2022-10-31T04:38:07.873Z,8.67
2022-10-31T04:40:34.591Z,8.50
2022-10-31T04:43:01.565Z,10.30
2022-10-31T04:45:28.595Z,9.67
2022-10-31T04:47:55.235Z,9.83
2022-10-31T04:50:21.887Z,9.93
2022-10-31T04:52:48.876Z,9.30
2022-10-31T04:55:16.252Z,9.63
2022-10-31T04:57:48.408Z,9.37
2022-10-31T05:00:18.340Z,8.17
2022-10-31T05:02:49.131Z,9.20
2022-10-31T05:05:20.348Z,9.23
2022-10-31T05:07:48.794Z,8.10
2022-10-31T05:10:19.259Z,9.43
2022-10-31T05:12:49.997Z,9.30
2022-10-31T05:15:17.950Z,8.57
2022-10-31T05:17:45.013Z,9.13
2022-10-31T05:20:13.095Z,9.17
2022-10-31T05:22:47.940Z,8.70
2022-10-31T05:25:15.319Z,8.63
2022-10-31T05:27:47.410Z,8.20
2022-10-31T05:30:17.685Z,8.43
2022-10-31T05:32:46.176Z,8.53
2022-10-31T05:35:16.165Z,9.30
2022-10-31T05:37:43.351Z,9.23
2022-10-31T05:40:13.666Z,8.90
2022-10-31T05:42:41.176Z,9.30
2022-10-31T05:45:13.478Z,9.13
2022-10-31T05:47:40.337Z,9.70
2022-10-31T05:50:08.556Z,8.30
2022-10-31T05:52:35.203Z,8.57
2022-10-31T05:55:01.893Z,8.30
2022-10-31T05:57:30.306Z,9.80
2022-10-31T05:59:57.009Z,8.87
2022-10-31T06:02:23.730Z,9.60
2022-10-31T06:04:50.517Z,9.07
2022-10-31T06:07:17.308Z,9.70
2022-10-31T06:09:44.141Z,7.30
2022-10-31T06:12:10.768Z,8.07
2022-10-31T06:14:37.442Z,7.90
2022-10-31T06:17:04.115Z,8.47
2022-10-31T06:19:30.761Z,8.43
2022-10-31T06:21:57.526Z,8.87
2022-10-31T06:24:24.257Z,8.73
2022-10-31T06:26:51.035Z,9.27
2022-10-31T06:29:17.716Z,8.90
2022-10-31T06:31:44.381Z,9.60
2022-10-31T06:34:11.094Z,9.07
2022-10-31T06:36:37.762Z,8.90
2022-10-31T06:39:04.546Z,8.47
2022-10-31T06:41:31.286Z,8.97
2022-10-31T06:43:57.959Z,8.60
2022-10-31T06:46:24.700Z,9.60
2022-10-31T06:48:51.470Z,9.00
2022-10-31T06:51:18.215Z,8.87
2022-10-31T06:53:44.971Z,8.63
2022-10-31T06:56:11.789Z,8.87
2022-10-31T06:58:38.551Z,9.40
2022-10-31T07:01:05.427Z,10.20
2022-10-31T07:03:32.426Z,8.33
2022-10-31T07:05:59.644Z,9.67
2022-10-31T07:08:26.638Z,9.47
2022-10-31T07:10:55.550Z,10.27
2022-10-31T07:13:26.688Z,8.73
2022-10-31T07:15:55.447Z,8.63
2022-10-31T07:18:22.992Z,8.87
2022-10-31T07:20:49.831Z,8.97
2022-10-31T07:23:16.561Z,9.07
2022-10-31T07:25:43.490Z,9.53
2022-10-31T07:28:10.823Z,8.90
2022-10-31T07:30:38.800Z,7.33
2022-10-31T07:33:06.434Z,7.90
2022-10-31T07:35:33.387Z,8.00
2022-10-31T07:38:09.260Z,8.20
2022-10-31T07:40:36.062Z,8.63
2022-10-31T07:43:03.005Z,8.03
2022-10-31T07:45:29.900Z,7.53
2022-10-31T07:47:57.073Z,7.83
2022-10-31T07:50:29.074Z,7.97
2022-10-31T07:53:01.246Z,8.77
2022-10-31T07:55:28.900Z,7.87
2022-10-31T07:58:01.203Z,8.90
2022-10-31T08:00:28.743Z,7.50
2022-10-31T08:03:16.399Z,8.73
2022-10-31T08:05:45.755Z,7.43
2022-10-31T08:08:13.272Z,7.50
2022-10-31T08:10:41.431Z,8.40
2022-10-31T08:13:13.150Z,7.40
2022-10-31T08:15:42.416Z,9.10
2022-10-31T08:18:14.233Z,7.80
2022-10-31T08:20:41.721Z,8.10
2022-10-31T08:23:09.775Z,7.90
2022-10-31T08:25:40.341Z,8.80
2022-10-31T08:28:07.993Z,8.00
2022-10-31T08:30:37.669Z,9.33
2022-10-31T08:33:12.083Z,8.50
2022-10-31T08:35:39.000Z,8.73
2022-10-31T08:38:05.970Z,8.40
2022-10-31T08:40:33.918Z,8.43
2022-10-31T08:43:05.654Z,8.30
2022-10-31T08:45:34.044Z,7.20
2022-10-31T08:48:02.860Z,8.63
2022-10-31T08:50:32.158Z,8.30
2022-10-31T08:53:08.748Z,8.10
2022-10-31T08:55:36.642Z,7.33
2022-10-31T08:58:05.169Z,8.17
2022-10-31T09:00:32.689Z,7.20
2022-10-31T09:03:01.759Z,6.80
2022-10-31T09:05:29.162Z,8.53
2022-10-31T09:08:00.012Z,8.30
2022-10-31T09:10:27.898Z,7.63
2022-10-31T09:13:02.792Z,7.53
2022-10-31T09:15:29.680Z,7.97
2022-10-31T09:17:56.537Z,8.07
2022-10-31T09:20:23.786Z,8.60
2022-10-31T09:23:01.004Z,7.80
2022-10-31T09:25:28.961Z,7.50
2022-10-31T09:28:00.269Z,7.90
2022-10-31T09:30:30.141Z,8.90
2022-10-31T09:33:01.857Z,7.57
2022-10-31T09:35:29.134Z,7.97
2022-10-31T09:38:15.552Z,8.37
2022-10-31T09:40:59.026Z,7.63
2022-10-31T09:44:08.682Z,7.60
2022-10-31T09:46:58.171Z,7.13
2022-10-31T09:50:09.871Z,7.50
2022-10-31T09:52:41.634Z,8.33
2022-10-31T09:55:22.210Z,7.10
2022-10-31T09:57:49.399Z,7.23
2022-10-31T10:00:22.491Z,8.30
2022-10-31T10:02:57.301Z,9.00
2022-10-31T10:05:55.707Z,7.97
2022-10-31T10:08:33.117Z,9.07
2022-10-31T10:11:06.054Z,6.83
2022-10-31T10:14:00.280Z,8.00
2022-10-31T10:16:45.120Z,7.77
2022-10-31T10:19:49.715Z,8.03
2022-10-31T10:22:51.580Z,8.27
2022-10-31T10:25:26.258Z,8.20
2022-10-31T10:28:28.275Z,7.20
2022-10-31T10:31:04.563Z,7.90
2022-10-31T10:33:39.058Z,8.20
2022-10-31T10:36:15.368Z,8.30
2022-10-31T10:39:00.739Z,7.93
2022-10-31T10:41:34.936Z,7.60
2022-10-31T10:44:02.355Z,6.90
2022-10-31T10:47:06.868Z,8.03
2022-10-31T10:49:52.955Z,7.00
2022-10-31T10:55:12.901Z,7.10
2022-10-31T10:57:45.804Z,7.43
2022-10-31T11:00:26.279Z,7.40
2022-10-31T11:02:54.070Z,7.30
2022-10-31T11:05:25.878Z,7.60
2022-10-31T11:07:53.050Z,8.47
2022-10-31T11:10:19.829Z,7.10
2022-10-31T11:13:13.761Z,6.90
2022-10-31T11:16:11.534Z,6.77
2022-10-31T11:18:44.961Z,7.97
2022-10-31T11:21:26.770Z,7.90
2022-10-31T11:24:09.551Z,8.00
2022-10-31T11:26:40.438Z,8.00
2022-10-31T11:29:22.618Z,7.50
2022-10-31T11:31:56.096Z,6.30
2022-10-31T11:34:46.199Z,7.63
2022-10-31T11:37:19.535Z,7.17
2022-10-31T11:39:54.276Z,6.43
2022-10-31T11:42:30.895Z,6.90
2022-10-31T11:44:58.031Z,6.87
2022-10-31T11:47:29.588Z,7.57
2022-10-31T11:49:58.133Z,6.13
2022-10-31T11:52:27.862Z,7.23
2022-10-31T11:55:14.707Z,6.47
2022-10-31T11:57:49.766Z,8.23
2022-10-31T12:00:25.475Z,6.27
2022-10-31T12:03:04.878Z,7.90
2022-10-31T12:05:33.952Z,7.30
2022-10-31T12:08:04.288Z,7.57
2022-10-31T12:10:43.897Z,7.17
2022-10-31T12:13:29.389Z,5.70
2022-10-31T12:16:18.330Z,6.40
2022-10-31T12:19:02.993Z,5.70
2022-10-31T12:21:54.463Z,5.50
2022-10-31T12:24:39.566Z,6.30
2022-10-31T12:27:30.359Z,6.60
2022-10-31T12:30:09.388Z,5.67
2022-10-31T12:33:15.521Z,6.20
2022-10-31T12:35:42.726Z,5.47
2022-10-31T12:38:33.046Z,5.50
2022-10-31T12:41:10.931Z,6.40
2022-10-31T12:43:43.774Z,5.43
2022-10-31T12:46:43.470Z,5.60
2022-10-31T12:49:43.438Z,6.50
2022-10-31T12:52:37.959Z,5.03
2022-10-31T12:55:10.667Z,6.77
2022-10-31T12:57:46.326Z,6.33
2022-10-31T13:00:18.325Z,5.60
2022-10-31T13:02:56.495Z,7.07
2022-10-31T13:05:31.488Z,7.00
2022-10-31T13:07:58.569Z,7.20
2022-10-31T13:10:47.022Z,6.53
2022-10-31T13:13:25.874Z,6.53
2022-10-31T13:15:57.687Z,7.73
2022-10-31T13:18:39.646Z,6.70
2022-10-31T13:21:12.706Z,7.60
2022-10-31T13:23:56.320Z,7.37
2022-10-31T13:26:41.914Z,7.67
2022-10-31T13:29:44.283Z,8.87
2022-10-31T13:32:12.499Z,9.30
2022-10-31T13:34:44.122Z,11.20
2022-10-31T13:37:22.626Z,11.97
2022-10-31T13:40:01.267Z,8.27
2022-10-31T13:43:02.102Z,8.00
2022-10-31T13:45:29.510Z,6.90
2022-10-31T13:48:18.968Z,6.57
2022-10-31T13:51:00.796Z,7.47
2022-10-31T13:54:01.474Z,8.23
2022-10-31T13:56:36.589Z,8.20
2022-10-31T13:59:15.821Z,6.60
2022-10-31T14:01:54.886Z,6.17
2022-10-31T14:04:29.182Z,6.83
2022-10-31T14:06:58.365Z,7.63
2022-10-31T14:09:35.526Z,7.00
2022-10-31T14:12:24.525Z,7.17
2022-10-31T14:14:55.429Z,6.33
2022-10-31T14:17:33.765Z,6.83
2022-10-31T14:20:23.624Z,6.03
2022-10-31T14:22:50.505Z,6.00
2022-10-31T14:25:37.940Z,6.90
2022-10-31T14:28:21.494Z,7.03
2022-10-31T14:30:56.397Z,6.67
2022-10-31T14:33:26.478Z,6.67
2022-10-31T14:36:06.006Z,5.93
2022-10-31T14:38:44.606Z,6.70
2022-10-31T14:41:33.070Z,6.23
2022-10-31T14:44:18.963Z,7.20
2022-10-31T14:46:54.280Z,8.87
2022-10-31T14:49:49.159Z,8.30
2022-10-31T14:52:18.378Z,8.90
2022-10-31T14:54:51.429Z,8.27
2022-10-31T14:57:23.273Z,8.27
2022-10-31T14:59:59.285Z,8.70
2022-10-31T15:02:40.463Z,8.47
2022-10-31T15:05:12.516Z,8.93
2022-10-31T15:07:53.262Z,8.50
2022-10-31T15:10:33.016Z,8.80
2022-10-31T15:13:23.234Z,9.63
2022-10-31T15:15:56.469Z,8.70
2022-10-31T15:18:27.132Z,10.20
2022-10-31T15:20:56.126Z,8.80
2022-10-31T15:23:40.720Z,8.17
2022-10-31T15:26:07.476Z,8.60
2022-10-31T15:28:34.289Z,8.90
2022-10-31T15:31:03.167Z,8.70
2022-10-31T15:33:46.968Z,8.80
2022-10-31T15:36:27.385Z,9.53
2022-10-31T15:38:59.592Z,9.70
2022-10-31T15:41:36.709Z,8.37
2022-10-31T15:44:28.980Z,8.30
2022-10-31T15:47:09.311Z,8.00
2022-10-31T15:49:43.065Z,9.40
2022-10-31T15:52:12.479Z,10.37
2022-10-31T15:54:54.181Z,9.20
2022-10-31T15:57:21.278Z,9.30
2022-10-31T15:59:49.755Z,10.00
2022-10-31T16:02:22.065Z,9.60
2022-10-31T16:04:58.502Z,9.53
2022-10-31T16:07:26.328Z,9.57
2022-10-31T16:10:04.863Z,10.60
2022-10-31T16:12:38.293Z,11.30
2022-10-31T16:15:07.712Z,11.60
2022-10-31T16:17:34.495Z,11.30
2022-10-31T16:20:04.764Z,12.00
2022-10-31T16:22:35.234Z,11.50
2022-10-31T16:25:12.354Z,11.57
2022-10-31T16:27:40.057Z,11.27
2022-10-31T16:30:50.008Z,11.67
2022-10-31T16:33:37.190Z,11.60
2022-10-31T16:36:35.694Z,11.57
2022-10-31T16:39:03.783Z,12.30
2022-10-31T16:41:30.888Z,11.20
2022-10-31T16:43:57.578Z,12.37
2022-10-31T16:46:28.438Z,13.53
2022-10-31T16:48:55.961Z,13.43
2022-10-31T16:51:23.067Z,14.07
2022-10-31T16:53:53.304Z,15.73
2022-10-31T16:56:28.621Z,14.40
2022-10-31T16:58:55.419Z,26.77
2022-10-31T17:01:22.484Z,31.00
2022-10-31T17:03:49.299Z,22.97
2022-10-31T17:06:16.121Z,25.10
2022-10-31T17:08:42.993Z,24.40
2022-10-31T17:11:17.100Z,24.93
2022-10-31T17:13:43.941Z,19.97
2022-10-31T17:16:13.198Z,18.33
2022-10-31T17:18:39.954Z,15.47
2022-10-31T17:21:06.963Z,18.47
2022-10-31T17:23:33.760Z,17.90
2022-10-31T17:26:00.567Z,26.03
2022-10-31T17:28:27.301Z,23.53
2022-10-31T17:30:59.194Z,21.03
2022-10-31T17:33:26.147Z,17.00
2022-10-31T17:35:52.853Z,19.50
2022-10-31T17:38:19.679Z,19.07
2022-10-31T17:43:19.415Z,18.53
2022-10-31T17:45:46.535Z,16.83
2022-10-31T17:48:13.382Z,36.63
2022-10-31T17:50:40.289Z,42.70
2022-10-31T17:53:07.134Z,33.77
2022-10-31T17:55:37.199Z,53.43
2022-10-31T17:58:04.888Z,35.73
2022-10-31T18:00:31.900Z,30.47
2022-10-31T18:02:59.055Z,21.10
2022-10-31T18:05:26.098Z,22.50
2022-10-31T18:07:53.152Z,18.07
2022-10-31T18:10:19.900Z,16.27
2022-10-31T18:12:48.712Z,17.20
2022-10-31T18:15:16.388Z,16.43
2022-10-31T18:17:43.268Z,14.93
2022-10-31T18:20:10.800Z,19.33
2022-10-31T18:25:03.551Z,21.70
2022-10-31T18:27:30.335Z,16.90
2022-10-31T18:29:57.135Z,31.97
2022-10-31T18:32:24.177Z,38.10
2022-10-31T18:34:50.876Z,29.23
2022-10-31T18:37:17.636Z,19.40
2022-10-31T18:39:44.696Z,19.30
2022-10-31T18:42:11.407Z,17.10
2022-10-31T18:44:38.298Z,17.90
2022-10-31T18:47:05.204Z,16.57
2022-10-31T18:49:33.446Z,14.87
2022-10-31T18:52:00.780Z,15.90
2022-10-31T18:54:27.543Z,16.73
2022-10-31T18:56:54.782Z,16.17
2022-10-31T18:59:21.679Z,17.17
2022-10-31T19:01:48.515Z,18.10
2022-10-31T19:04:15.294Z,16.43
2022-10-31T19:06:42.053Z,16.17
2022-10-31T19:09:11.739Z,15.87
2022-10-31T19:11:39.448Z,15.10
2022-10-31T19:14:08.600Z,16.43
2022-10-31T19:16:35.747Z,15.70
2022-10-31T19:19:02.903Z,14.90
2022-10-31T19:21:33.334Z,15.03
2022-10-31T19:24:00.650Z,16.43
2022-10-31T19:26:28.313Z,15.63
2022-10-31T19:28:56.273Z,17.10
2022-10-31T19:31:23.659Z,15.83
2022-10-31T19:33:50.746Z,15.80
2022-10-31T19:36:19.224Z,16.67
2022-10-31T19:38:49.516Z,15.87
2022-10-31T19:41:18.821Z,16.67
2022-10-31T19:43:45.601Z,16.20
2022-10-31T19:46:22.043Z,16.90
2022-10-31T19:48:55.223Z,15.50
2022-10-31T19:51:22.353Z,15.80
2022-10-31T19:53:52.523Z,15.13
2022-10-31T19:56:21.197Z,16.43
2022-10-31T19:58:48.657Z,14.70
2022-10-31T20:01:17.681Z,15.17
2022-10-31T20:03:45.705Z,15.43
2022-10-31T20:06:18.777Z,16.47
2022-10-31T20:08:45.505Z,16.63
2022-10-31T20:11:12.325Z,14.10
2022-10-31T20:13:39.194Z,14.60
2022-10-31T20:16:11.067Z,15.23
2022-10-31T20:18:38.980Z,15.97
2022-10-31T20:21:11.700Z,16.57
2022-10-31T20:23:39.371Z,18.33
2022-10-31T20:26:08.629Z,15.40
2022-10-31T20:28:39.958Z,15.90
2022-10-31T20:31:14.037Z,18.00
2022-10-31T20:33:41.270Z,16.50
2022-10-31T20:36:09.173Z,15.33
2022-10-31T20:38:41.107Z,16.33
2022-10-31T20:41:10.186Z,16.90
2022-10-31T20:43:38.926Z,14.90
2022-10-31T20:46:08.492Z,14.27
2022-10-31T20:48:35.340Z,15.40
2022-10-31T20:51:05.885Z,15.00
2022-10-31T20:53:33.519Z,14.13
2022-10-31T20:56:08.632Z,14.17
2022-10-31T20:58:36.752Z,15.07
2022-10-31T21:01:05.688Z,15.10
2022-10-31T21:03:32.790Z,13.53
2022-10-31T21:06:01.333Z,14.23
2022-10-31T21:08:29.632Z,13.10
2022-10-31T21:10:56.960Z,13.93
2022-10-31T21:13:24.346Z,14.63
2022-10-31T21:16:02.000Z,15.23
2022-10-31T21:18:28.946Z,13.40
2022-10-31T21:20:55.824Z,15.93
2022-10-31T21:23:22.914Z,16.20
2022-10-31T21:25:49.716Z,16.40
2022-10-31T21:28:16.542Z,16.50
2022-10-31T21:30:48.951Z,17.23
2022-10-31T21:33:15.896Z,15.97
2022-10-31T21:35:49.598Z,14.60
2022-10-31T21:38:16.388Z,15.33
2022-10-31T21:43:14.895Z,16.90
2022-10-31T21:45:41.697Z,16.37
2022-10-31T21:48:08.450Z,16.43
2022-10-31T21:50:35.563Z,15.40
2022-10-31T21:53:22.267Z,17.10
2022-10-31T21:55:48.994Z,17.30
2022-10-31T21:58:15.742Z,17.33
2022-10-31T22:00:42.616Z,16.10
2022-10-31T22:03:09.438Z,16.87
2022-10-31T22:05:36.196Z,16.20
2022-10-31T22:08:03.602Z,12.63
2022-10-31T22:10:30.826Z,15.30
2022-10-31T22:12:57.620Z,13.90
2022-10-31T22:15:24.426Z,16.30
2022-10-31T22:17:51.211Z,15.50
2022-10-31T22:20:18.003Z,16.00
2022-10-31T22:22:47.242Z,15.13
2022-10-31T22:25:14.029Z,14.40
2022-10-31T22:27:41.777Z,15.10
2022-10-31T22:30:09.427Z,14.53
2022-10-31T22:32:36.161Z,15.00
2022-10-31T22:35:02.973Z,14.33
2022-10-31T22:37:29.727Z,15.60
2022-10-31T22:39:56.488Z,14.73
2022-10-31T22:42:23.240Z,15.50
2022-10-31T22:44:49.930Z,14.70
2022-10-31T22:47:16.640Z,16.00
2022-10-31T22:49:43.847Z,15.00
2022-10-31T22:52:10.616Z,14.90
2022-10-31T22:54:37.400Z,14.70
2022-10-31T22:57:04.191Z,15.63
2022-10-31T22:59:30.980Z,15.13
2022-10-31T23:01:57.952Z,14.73
2022-10-31T23:04:24.720Z,16.77
2022-10-31T23:06:51.425Z,14.80
2022-10-31T23:09:18.658Z,15.97
2022-10-31T23:11:46.035Z,17.10
2022-10-31T23:14:18.537Z,16.83
2022-10-31T23:16:53.536Z,16.73
2022-10-31T23:19:27.746Z,16.60
2022-10-31T23:21:59.335Z,16.60
2022-10-31T23:24:29.598Z,15.57
2022-10-31T23:27:10.169Z,15.53
2022-10-31T23:29:49.364Z,16.23
2022-10-31T23:32:35.156Z,15.37
2022-10-31T23:35:10.226Z,16.30
2022-10-31T23:37:38.481Z,15.53
2022-10-31T23:40:06.512Z,15.43
2022-10-31T23:42:33.195Z,15.33
2022-10-31T23:44:59.857Z,15.50
2022-10-31T23:47:26.569Z,15.83
2022-10-31T23:49:53.305Z,15.87
2022-10-31T23:52:20.405Z,15.60
2022-10-31T23:54:47.188Z,16.93
2022-10-31T23:57:15.865Z,16.00
2022-10-31T23:59:42.800Z,16.90
